createdAt,value
2018-09-17T00:01:10.896Z,14.20
2018-09-17T00:03:39.505Z,14.20
2018-09-17T00:06:08.056Z,14.10
2018-09-17T00:08:36.491Z,14.10
2018-09-17T00:11:04.929Z,14.10
2018-09-17T00:13:33.425Z,14.10
2018-09-17T00:16:01.856Z,14.10
2018-09-17T00:18:30.288Z,14.10
2018-09-17T00:20:58.726Z,14.00
2018-09-17T00:23:27.169Z,14.00
2018-09-17T00:25:55.649Z,14.00
2018-09-17T00:28:24.065Z,14.00
2018-09-17T00:30:52.549Z,13.90
2018-09-17T00:33:21.051Z,13.90
2018-09-17T00:35:49.512Z,13.80
2018-09-17T00:38:17.952Z,13.80
2018-09-17T00:40:46.433Z,13.70
2018-09-17T00:43:15.529Z,13.70
2018-09-17T00:45:46.915Z,13.70
2018-09-17T00:48:15.394Z,13.70
2018-09-17T00:50:43.862Z,13.60
2018-09-17T00:53:12.291Z,13.60
2018-09-17T00:55:40.762Z,13.70
2018-09-17T00:58:09.172Z,13.70
2018-09-17T01:00:37.617Z,13.60
2018-09-17T01:03:06.119Z,13.60
2018-09-17T01:05:34.678Z,13.60
2018-09-17T01:08:03.174Z,13.60
2018-09-17T01:10:31.707Z,13.60
2018-09-17T01:13:00.161Z,13.60
2018-09-17T01:15:28.660Z,13.60
2018-09-17T01:17:57.108Z,13.50
2018-09-17T01:20:25.585Z,13.50
2018-09-17T01:22:54.217Z,13.50
2018-09-17T01:25:22.649Z,13.50
2018-09-17T01:27:51.261Z,13.40
2018-09-17T01:30:19.706Z,13.40
2018-09-17T01:32:48.169Z,13.40
2018-09-17T01:35:16.679Z,13.50
2018-09-17T01:37:47.254Z,13.50
2018-09-17T01:40:15.673Z,13.60
2018-09-17T01:42:44.403Z,13.60
2018-09-17T01:45:12.881Z,13.50
2018-09-17T01:47:41.313Z,13.50
2018-09-17T01:50:09.962Z,13.50
2018-09-17T01:52:38.409Z,13.50
2018-09-17T01:55:06.882Z,13.40
2018-09-17T01:57:35.326Z,13.40
2018-09-17T02:00:03.821Z,13.40
2018-09-17T02:02:32.250Z,13.30
2018-09-17T02:05:00.785Z,13.30
2018-09-17T02:07:29.220Z,13.40
2018-09-17T02:09:57.707Z,13.30
2018-09-17T02:12:26.098Z,13.30
2018-09-17T02:14:54.554Z,13.30
2018-09-17T02:17:23.033Z,13.20
2018-09-17T02:19:51.664Z,13.20
2018-09-17T02:22:20.120Z,13.20
2018-09-17T02:24:48.618Z,13.30
2018-09-17T02:27:17.111Z,13.40
2018-09-17T02:29:45.555Z,13.40
2018-09-17T02:32:13.982Z,13.40
2018-09-17T02:34:42.408Z,13.30
2018-09-17T02:37:10.899Z,13.20
2018-09-17T02:39:39.526Z,13.10
2018-09-17T02:42:08.416Z,13.00
2018-09-17T02:44:37.183Z,13.00
2018-09-17T02:47:05.810Z,12.90
2018-09-17T02:49:34.265Z,12.90
2018-09-17T02:52:02.753Z,12.90
2018-09-17T02:54:31.182Z,12.90
2018-09-17T02:56:59.632Z,12.90
2018-09-17T02:59:28.414Z,12.90
2018-09-17T03:01:56.882Z,13.00
2018-09-17T03:04:25.329Z,13.00
2018-09-17T03:06:53.767Z,13.00
2018-09-17T03:09:22.219Z,13.00
2018-09-17T03:11:50.645Z,13.00
2018-09-17T03:14:26.785Z,13.00
2018-09-17T03:17:11.077Z,13.10
2018-09-17T03:19:40.290Z,13.20
2018-09-17T03:22:08.853Z,13.10
2018-09-17T03:24:37.632Z,13.10
2018-09-17T03:27:06.326Z,13.10
2018-09-17T03:29:34.785Z,13.10
2018-09-17T03:32:03.250Z,13.10
2018-09-17T03:34:31.713Z,13.00
2018-09-17T03:37:00.269Z,13.00
2018-09-17T03:39:28.880Z,13.00
2018-09-17T03:41:57.339Z,13.00
2018-09-17T03:44:25.798Z,13.00
2018-09-17T03:46:54.271Z,12.90
2018-09-17T03:49:22.702Z,12.90
2018-09-17T03:51:51.170Z,13.00
2018-09-17T03:54:19.605Z,12.90
2018-09-17T03:56:48.077Z,12.90
2018-09-17T03:59:16.518Z,12.90
2018-09-17T04:01:44.960Z,12.90
2018-09-17T04:04:13.428Z,12.90
2018-09-17T04:06:41.930Z,12.80
2018-09-17T04:09:10.375Z,12.80
2018-09-17T04:11:38.821Z,12.80
2018-09-17T04:14:08.118Z,12.80
2018-09-17T04:16:36.946Z,12.70
2018-09-17T04:19:05.629Z,12.80
2018-09-17T04:21:34.046Z,12.80
2018-09-17T04:24:02.730Z,12.90
2018-09-17T04:26:31.277Z,12.90
2018-09-17T04:28:59.723Z,12.90
2018-09-17T04:31:28.201Z,12.90
2018-09-17T04:33:56.613Z,13.00
2018-09-17T04:36:25.073Z,13.00
2018-09-17T04:38:53.793Z,13.00
2018-09-17T04:41:22.331Z,13.00
2018-09-17T04:43:50.776Z,12.90
2018-09-17T04:46:19.191Z,12.80
2018-09-17T04:48:47.614Z,12.80
2018-09-17T04:51:16.191Z,12.70
2018-09-17T04:53:44.661Z,12.80
2018-09-17T04:56:13.108Z,12.80
2018-09-17T04:58:41.566Z,12.80
2018-09-17T05:01:10.051Z,12.70
2018-09-17T05:03:38.474Z,12.70
2018-09-17T05:06:06.958Z,12.70
2018-09-17T05:08:35.426Z,12.70
2018-09-17T05:11:03.897Z,12.70
2018-09-17T05:13:32.403Z,12.70
2018-09-17T05:16:04.474Z,12.70
2018-09-17T05:18:32.930Z,12.70
2018-09-17T05:21:01.358Z,12.70
2018-09-17T05:23:29.818Z,12.80
2018-09-17T05:25:58.258Z,12.80
2018-09-17T05:28:26.722Z,12.80
2018-09-17T05:30:55.162Z,12.90
2018-09-17T05:33:23.652Z,13.00
2018-09-17T05:35:52.210Z,13.00
2018-09-17T05:38:21.834Z,13.00
2018-09-17T05:40:50.276Z,13.00
2018-09-17T05:43:18.764Z,13.10
2018-09-17T05:45:47.198Z,13.00
2018-09-17T05:48:15.633Z,13.10
2018-09-17T05:50:44.090Z,13.10
2018-09-17T05:53:12.521Z,13.20
2018-09-17T05:55:40.985Z,13.20
2018-09-17T05:58:09.403Z,13.30
2018-09-17T06:00:37.914Z,13.40
2018-09-17T06:03:06.431Z,13.50
2018-09-17T06:05:35.087Z,13.70
2018-09-17T06:08:03.537Z,13.80
2018-09-17T06:10:32.029Z,13.80
2018-09-17T06:13:00.494Z,13.90
2018-09-17T06:15:29.036Z,14.10
2018-09-17T06:17:57.611Z,14.10
2018-09-17T06:20:26.097Z,14.20
2018-09-17T06:22:54.514Z,14.30
2018-09-17T06:25:23.066Z,14.50
2018-09-17T06:27:51.515Z,14.50
2018-09-17T06:30:19.942Z,14.70
2018-09-17T06:32:48.423Z,14.80
2018-09-17T06:35:16.885Z,14.90
2018-09-17T06:37:45.438Z,14.90
2018-09-17T06:40:13.871Z,15.10
2018-09-17T06:42:43.196Z,15.10
2018-09-17T06:45:12.029Z,15.20
2018-09-17T06:47:40.576Z,15.30
2018-09-17T06:50:09.154Z,15.30
2018-09-17T06:52:37.594Z,15.50
2018-09-17T06:55:06.065Z,15.50
2018-09-17T06:57:34.488Z,15.70
2018-09-17T07:00:02.992Z,15.80
2018-09-17T07:02:31.409Z,15.90
2018-09-17T07:04:59.865Z,16.10
2018-09-17T07:07:28.338Z,16.30
2018-09-17T07:09:56.789Z,16.60
2018-09-17T07:12:25.234Z,16.70
2018-09-17T07:14:53.688Z,16.90
2018-09-17T07:17:22.128Z,17.10
2018-09-17T07:19:50.601Z,17.30
2018-09-17T07:22:19.053Z,17.70
2018-09-17T07:24:47.509Z,17.80
2018-09-17T07:27:16.206Z,18.00
2018-09-17T07:29:44.645Z,18.20
2018-09-17T07:32:13.133Z,19.10
2018-09-17T07:34:41.589Z,20.00
2018-09-17T07:37:10.253Z,20.50
2018-09-17T07:39:38.703Z,20.80
2018-09-17T07:42:07.202Z,21.10
2018-09-17T07:44:35.714Z,21.40
2018-09-17T07:47:04.227Z,21.40
2018-09-17T07:49:32.658Z,21.50
2018-09-17T07:52:01.337Z,21.70
2018-09-17T07:54:29.891Z,21.50
2018-09-17T07:56:58.489Z,21.40
2018-09-17T07:59:26.918Z,21.50
2018-09-17T08:01:55.370Z,21.90
2018-09-17T08:04:23.821Z,22.40
2018-09-17T08:06:52.261Z,22.60
2018-09-17T08:09:20.784Z,22.80
2018-09-17T08:11:49.262Z,23.20
2018-09-17T08:14:17.788Z,23.20
2018-09-17T08:16:46.250Z,23.20
2018-09-17T08:19:14.696Z,23.50
2018-09-17T08:21:43.124Z,24.00
2018-09-17T08:24:11.658Z,23.70
2018-09-17T08:26:40.129Z,23.60
2018-09-17T08:29:09.014Z,23.60
2018-09-17T08:31:37.563Z,24.20
2018-09-17T08:34:06.141Z,23.80
2018-09-17T08:36:37.211Z,23.90
2018-09-17T08:39:14.154Z,24.00
2018-09-17T08:41:45.271Z,24.00
2018-09-17T08:44:14.030Z,24.40
2018-09-17T08:46:42.802Z,24.50
2018-09-17T08:49:32.532Z,24.80
2018-09-17T08:55:15.313Z,25.20
2018-09-17T08:57:49.232Z,25.00
2018-09-17T09:00:17.757Z,24.60
2018-09-17T09:02:50.689Z,24.30
2018-09-17T09:05:24.882Z,24.20
2018-09-17T09:07:54.689Z,24.60
2018-09-17T09:10:28.460Z,24.60
2018-09-17T09:13:02.525Z,24.40
2018-09-17T09:22:40.380Z,25.30
2018-09-17T09:25:10.017Z,24.80
2018-09-17T09:27:38.483Z,24.60
2018-09-17T09:30:06.929Z,24.30
2018-09-17T09:32:35.415Z,24.40
2018-09-17T09:35:03.917Z,24.70
2018-09-17T09:37:32.372Z,24.80
2018-09-17T09:40:00.913Z,24.90
2018-09-17T09:42:29.390Z,24.70
2018-09-17T09:44:57.854Z,24.80
2018-09-17T09:47:26.302Z,25.00
2018-09-17T09:49:55.139Z,25.40
2018-09-17T09:52:23.598Z,25.30
2018-09-17T09:54:52.071Z,25.70
2018-09-17T09:57:20.526Z,26.20
2018-09-17T09:59:49.018Z,26.00
2018-09-17T10:02:22.730Z,26.20
2018-09-17T10:04:51.219Z,26.00
2018-09-17T10:07:19.667Z,25.50
2018-09-17T10:09:53.471Z,25.60
2018-09-17T10:12:27.446Z,25.60
2018-09-17T10:15:01.227Z,25.70
2018-09-17T10:17:35.005Z,25.90
2018-09-17T10:20:03.561Z,25.80
2018-09-17T10:22:32.070Z,25.90
2018-09-17T10:25:00.550Z,25.90
2018-09-17T10:27:29.059Z,25.80
2018-09-17T10:29:57.617Z,26.20
2018-09-17T10:32:26.580Z,26.30
2018-09-17T10:34:55.094Z,26.50
2018-09-17T10:37:23.566Z,26.40
2018-09-17T10:39:52.069Z,26.40
2018-09-17T10:42:20.573Z,26.30
2018-09-17T10:44:49.050Z,26.50
2018-09-17T10:47:17.599Z,26.70
2018-09-17T10:49:46.054Z,26.80
2018-09-17T10:52:15.147Z,27.40
2018-09-17T10:54:43.605Z,27.50
2018-09-17T10:57:12.141Z,27.70
2018-09-17T10:59:40.648Z,27.20
2018-09-17T11:02:09.240Z,27.00
2018-09-17T11:04:37.723Z,26.90
2018-09-17T11:07:06.486Z,27.30
2018-09-17T11:09:36.575Z,27.00
2018-09-17T11:12:05.148Z,27.20
2018-09-17T11:14:33.732Z,27.80
2018-09-17T11:17:03.855Z,27.80
2018-09-17T11:19:32.406Z,27.80
2018-09-17T11:22:03.762Z,27.80
2018-09-17T11:24:32.313Z,27.90
2018-09-17T11:27:00.850Z,28.00
2018-09-17T11:29:29.417Z,27.70
2018-09-17T11:31:57.953Z,27.70
2018-09-17T11:34:26.797Z,28.00
2018-09-17T11:36:55.375Z,28.10
2018-09-17T11:39:25.148Z,28.30
2018-09-17T11:41:53.658Z,28.60
2018-09-17T11:44:22.478Z,28.80
2018-09-17T11:46:50.975Z,28.80
2018-09-17T11:49:19.475Z,29.30
2018-09-17T11:51:49.544Z,28.90
2018-09-17T11:54:18.118Z,29.30
2018-09-17T11:56:49.339Z,29.60
2018-09-17T11:59:17.866Z,30.20
2018-09-17T12:01:55.603Z,29.70
2018-09-17T12:04:29.841Z,29.50
2018-09-17T12:07:03.646Z,30.00
2018-09-17T12:09:32.792Z,29.40
2018-09-17T12:12:02.837Z,29.00
2018-09-17T12:14:32.118Z,29.20
2018-09-17T12:17:01.129Z,29.90
2018-09-17T12:19:29.607Z,29.60
2018-09-17T12:21:58.110Z,29.60
2018-09-17T12:24:26.598Z,30.40
2018-09-17T12:26:56.161Z,30.40
2018-09-17T12:29:24.646Z,30.50
2018-09-17T12:31:53.645Z,30.90
2018-09-17T12:34:23.426Z,30.90
2018-09-17T12:36:51.933Z,30.40
2018-09-17T12:39:20.414Z,30.40
2018-09-17T12:41:50.015Z,29.90
2018-09-17T12:44:18.706Z,30.50
2018-09-17T12:46:47.936Z,31.20
2018-09-17T12:49:17.765Z,31.80
2018-09-17T12:51:48.194Z,31.10
2018-09-17T12:54:16.798Z,30.90
2018-09-17T12:56:45.345Z,30.50
2018-09-17T12:59:13.818Z,30.60
2018-09-17T13:01:43.625Z,30.90
2018-09-17T13:04:12.250Z,31.00
2018-09-17T13:06:41.457Z,31.20
2018-09-17T13:09:11.152Z,31.00
2018-09-17T13:11:40.880Z,30.90
2018-09-17T13:14:09.432Z,31.20
2018-09-17T13:16:39.535Z,31.70
2018-09-17T13:19:10.765Z,31.20
2018-09-17T13:21:39.931Z,30.70
2018-09-17T13:24:08.502Z,31.30
2018-09-17T13:26:37.981Z,31.00
2018-09-17T13:29:06.541Z,31.90
2018-09-17T13:31:35.334Z,32.40
2018-09-17T13:34:03.798Z,32.90
2018-09-17T13:36:35.643Z,33.00
2018-09-17T13:39:06.896Z,32.80
2018-09-17T13:41:37.167Z,32.80
2018-09-17T13:44:05.736Z,32.80
2018-09-17T13:46:36.073Z,32.30
2018-09-17T13:49:06.193Z,32.60
2018-09-17T13:51:36.915Z,31.80
2018-09-17T13:54:05.440Z,32.00
2018-09-17T13:56:33.934Z,32.30
2018-09-17T13:59:02.426Z,32.80
2018-09-17T14:01:30.909Z,32.50
2018-09-17T14:04:00.127Z,31.30
2018-09-17T14:06:28.602Z,31.10
2018-09-17T14:08:57.115Z,31.80
2018-09-17T14:11:26.281Z,32.30
2018-09-17T14:13:54.836Z,32.60
2018-09-17T14:16:28.631Z,32.10
2018-09-17T14:18:57.242Z,32.40
2018-09-17T14:21:25.818Z,32.50
2018-09-17T14:23:55.251Z,33.30
2018-09-17T14:26:23.989Z,33.40
2018-09-17T14:28:52.433Z,32.80
2018-09-17T14:31:26.263Z,32.10
2018-09-17T14:33:54.813Z,32.00
2018-09-17T14:36:23.460Z,31.60
2018-09-17T14:38:52.254Z,32.00
2018-09-17T14:41:20.807Z,32.10
2018-09-17T14:43:49.445Z,32.60
2018-09-17T14:46:18.035Z,32.60
2018-09-17T14:48:46.634Z,32.20
2018-09-17T14:51:15.142Z,31.80
2018-09-17T14:53:43.687Z,31.50
2018-09-17T14:56:12.223Z,31.70
2018-09-17T14:58:40.722Z,32.00
2018-09-17T15:01:09.259Z,32.00
2018-09-17T15:03:37.816Z,32.20
2018-09-17T15:06:07.385Z,32.20
2018-09-17T15:08:36.598Z,32.10
2018-09-17T15:11:05.044Z,31.90
2018-09-17T15:13:34.567Z,30.40
2018-09-17T15:16:03.631Z,29.30
2018-09-17T15:18:32.277Z,28.60
2018-09-17T15:21:00.865Z,28.40
2018-09-17T15:23:29.361Z,28.40
2018-09-17T15:25:58.069Z,28.30
2018-09-17T15:28:26.552Z,28.40
2018-09-17T15:30:55.701Z,28.50
2018-09-17T15:33:24.146Z,27.90
2018-09-17T15:35:54.192Z,27.70
2018-09-17T15:38:22.744Z,27.70
2018-09-17T15:40:51.385Z,27.70
2018-09-17T15:43:19.874Z,27.40
2018-09-17T15:45:48.683Z,27.30
2018-09-17T15:48:17.685Z,27.40
2018-09-17T15:50:46.281Z,27.30
2018-09-17T15:53:17.199Z,27.30
2018-09-17T15:55:45.815Z,27.40
2018-09-17T15:58:14.429Z,27.40
2018-09-17T16:00:42.873Z,27.10
2018-09-17T16:03:11.392Z,26.90
2018-09-17T16:05:41.901Z,27.00
2018-09-17T16:08:10.426Z,26.90
2018-09-17T16:10:38.898Z,26.80
2018-09-17T16:13:07.350Z,26.60
2018-09-17T16:15:38.651Z,26.60
2018-09-17T16:18:07.253Z,26.70
2018-09-17T16:20:35.876Z,26.70
2018-09-17T16:23:04.429Z,26.50
2018-09-17T16:25:32.897Z,26.30
2018-09-17T16:28:01.374Z,26.20
2018-09-17T16:30:29.886Z,26.10
2018-09-17T16:32:59.386Z,26.20
2018-09-17T16:35:29.204Z,26.10
2018-09-17T16:37:57.774Z,26.00
2018-09-17T16:40:26.286Z,26.00
2018-09-17T16:42:54.740Z,25.90
2018-09-17T16:45:23.329Z,25.80
2018-09-17T16:47:51.788Z,25.70
2018-09-17T16:50:20.271Z,25.70
2018-09-17T16:52:48.766Z,25.60
2018-09-17T16:55:17.186Z,25.50
2018-09-17T16:57:45.643Z,25.50
2018-09-17T17:00:14.115Z,25.40
2018-09-17T17:02:42.573Z,25.30
2018-09-17T17:05:11.089Z,25.20
2018-09-17T17:07:39.562Z,25.10
2018-09-17T17:10:08.067Z,25.10
2018-09-17T17:12:38.212Z,25.00
2018-09-17T17:15:06.693Z,24.90
2018-09-17T17:17:35.177Z,24.80
2018-09-17T17:20:03.919Z,24.70
2018-09-17T17:22:32.452Z,24.60
2018-09-17T17:25:00.990Z,24.30
2018-09-17T17:27:29.486Z,24.10
2018-09-17T17:29:57.993Z,23.80
2018-09-17T17:32:26.461Z,23.70
2018-09-17T17:34:54.998Z,23.40
2018-09-17T17:37:23.602Z,23.10
2018-09-17T17:39:52.208Z,22.90
2018-09-17T17:42:21.361Z,22.70
2018-09-17T17:44:50.559Z,22.60
2018-09-17T17:47:19.026Z,22.50
2018-09-17T17:49:47.759Z,22.40
2018-09-17T17:52:17.130Z,22.30
2018-09-17T17:54:45.587Z,22.20
2018-09-17T17:57:14.288Z,22.00
2018-09-17T17:59:42.941Z,21.90
2018-09-17T18:02:11.578Z,21.80
2018-09-17T18:04:40.161Z,21.60
2018-09-17T18:07:08.693Z,21.40
2018-09-17T18:09:37.343Z,21.40
2018-09-17T18:12:05.919Z,21.10
2018-09-17T18:14:34.474Z,21.00
2018-09-17T18:17:02.980Z,21.00
2018-09-17T18:19:31.443Z,21.00
2018-09-17T18:22:00.142Z,20.90
2018-09-17T18:24:28.647Z,20.80
2018-09-17T18:26:57.441Z,20.80
2018-09-17T18:29:26.865Z,20.60
2018-09-17T18:31:55.334Z,20.50
2018-09-17T18:34:23.930Z,20.40
2018-09-17T18:36:52.556Z,20.20
2018-09-17T18:39:21.090Z,20.10
2018-09-17T18:41:49.542Z,20.10
2018-09-17T18:44:18.011Z,20.10
2018-09-17T18:46:47.117Z,20.10
2018-09-17T18:49:15.568Z,20.00
2018-09-17T18:51:44.058Z,20.00
2018-09-17T18:54:13.202Z,20.00
2018-09-17T18:56:41.750Z,19.90
2018-09-17T18:59:10.206Z,19.80
2018-09-17T19:01:38.788Z,19.60
2018-09-17T19:04:07.303Z,19.70
2018-09-17T19:06:35.776Z,19.60
2018-09-17T19:09:05.309Z,19.60
2018-09-17T19:11:33.921Z,19.50
2018-09-17T19:15:08.402Z,19.40
2018-09-17T19:17:41.090Z,19.30
2018-09-17T19:20:10.948Z,19.20
2018-09-17T19:22:44.742Z,19.10
2018-09-17T19:25:14.274Z,19.10
2018-09-17T19:27:48.266Z,19.00
2018-09-17T19:30:16.980Z,19.00
2018-09-17T19:32:45.647Z,18.90
2018-09-17T19:35:14.150Z,18.90
2018-09-17T19:37:47.918Z,18.90
2018-09-17T19:40:18.624Z,18.80
2018-09-17T19:42:48.085Z,18.70
2018-09-17T19:45:21.985Z,18.60
2018-09-17T19:47:51.360Z,18.50
2018-09-17T19:50:25.085Z,18.60
2018-09-17T19:52:54.309Z,18.60
2018-09-17T19:55:22.829Z,18.70
2018-09-17T19:57:56.674Z,18.60
2018-09-17T20:00:25.207Z,18.70
2018-09-17T20:02:53.667Z,18.50
2018-09-17T20:05:27.545Z,18.50
2018-09-17T20:07:57.421Z,18.50
2018-09-17T20:10:25.955Z,18.40
2018-09-17T20:12:54.421Z,18.40
2018-09-17T20:15:22.949Z,18.30
2018-09-17T20:17:51.407Z,18.40
2018-09-17T20:20:20.016Z,18.50
2018-09-17T20:22:48.477Z,18.70
2018-09-17T20:25:16.941Z,18.80
2018-09-17T20:27:45.449Z,18.80
2018-09-17T20:30:13.932Z,18.90
2018-09-17T20:32:42.446Z,18.90
2018-09-17T20:35:11.807Z,18.90
2018-09-17T20:37:40.670Z,18.90
2018-09-17T20:40:10.732Z,18.80
2018-09-17T20:42:39.317Z,18.80
2018-09-17T20:45:08.321Z,18.70
2018-09-17T20:47:37.112Z,18.60
2018-09-17T20:50:06.394Z,18.40
2018-09-17T20:52:42.015Z,18.20
2018-09-17T20:55:10.721Z,18.10
2018-09-17T20:57:39.254Z,18.00
2018-09-17T21:00:08.689Z,17.80
2018-09-17T21:02:37.968Z,17.60
2018-09-17T21:05:07.656Z,17.40
2018-09-17T21:07:39.316Z,17.40
2018-09-17T21:10:08.060Z,17.20
2018-09-17T21:12:37.411Z,17.10
2018-09-17T21:15:06.974Z,17.00
2018-09-17T21:17:35.814Z,16.90
2018-09-17T21:20:05.437Z,16.90
2018-09-17T21:22:34.250Z,16.80
2018-09-17T21:25:03.546Z,16.80
2018-09-17T21:27:32.038Z,16.70
2018-09-17T21:30:00.838Z,16.60
2018-09-17T21:32:29.313Z,16.60
2018-09-17T21:34:58.274Z,16.60
2018-09-17T21:37:26.769Z,16.50
2018-09-17T21:39:55.238Z,16.60
2018-09-17T21:42:23.866Z,16.60
2018-09-17T21:44:52.331Z,16.60
2018-09-17T21:47:20.804Z,16.40
2018-09-17T21:49:49.375Z,16.30
2018-09-17T21:52:17.888Z,16.20
2018-09-17T21:54:46.408Z,16.10
2018-09-17T21:57:14.881Z,16.00
2018-09-17T21:59:43.411Z,15.90
2018-09-17T22:02:11.993Z,15.80
2018-09-17T22:04:40.743Z,15.70
2018-09-17T22:07:09.191Z,15.70
2018-09-17T22:09:37.698Z,15.70
2018-09-17T22:12:06.455Z,15.60
2018-09-17T22:14:34.940Z,15.50
2018-09-17T22:17:03.433Z,15.50
2018-09-17T22:19:31.909Z,15.40
2018-09-17T22:22:00.431Z,15.40
2018-09-17T22:24:28.887Z,15.30
2018-09-17T22:26:57.443Z,15.30
2018-09-17T22:29:27.571Z,15.30
2018-09-17T22:31:56.053Z,15.30
2018-09-17T22:34:24.503Z,15.30
2018-09-17T22:36:52.998Z,15.40
2018-09-17T22:39:21.446Z,15.50
2018-09-17T22:41:50.663Z,15.50
2018-09-17T22:44:19.103Z,15.60
2018-09-17T22:46:47.571Z,15.60
2018-09-17T22:49:16.045Z,15.70
2018-09-17T22:51:44.531Z,15.70
2018-09-17T22:54:15.803Z,15.80
2018-09-17T22:56:44.306Z,15.80
2018-09-17T22:59:13.387Z,15.80
2018-09-17T23:01:41.882Z,15.80
2018-09-17T23:04:10.338Z,15.80
2018-09-17T23:06:38.804Z,15.70
2018-09-17T23:09:09.116Z,15.60
2018-09-17T23:11:37.637Z,15.60
2018-09-17T23:14:06.123Z,15.50
2018-09-17T23:16:34.583Z,15.50
2018-09-17T23:19:03.040Z,15.50
2018-09-17T23:21:31.503Z,15.50
2018-09-17T23:24:00.071Z,15.50
2018-09-17T23:26:28.530Z,15.50
2018-09-17T23:28:57.057Z,15.40
2018-09-17T23:31:25.503Z,15.40
2018-09-17T23:33:53.974Z,15.40
2018-09-17T23:36:22.455Z,15.30
2018-09-17T23:38:50.916Z,15.40
2018-09-17T23:41:19.359Z,15.30
2018-09-17T23:43:47.988Z,15.30
2018-09-17T23:46:16.483Z,15.40
2018-09-17T23:48:44.941Z,15.30
2018-09-17T23:51:13.394Z,15.30
2018-09-17T23:53:41.857Z,15.20
2018-09-17T23:56:10.350Z,15.10
2018-09-17T23:58:38.897Z,15.10
